Time;durP1;ratioP1;P1;durP2;ratioP2;P2;SDS_P1;SDS_P2;PMS_P1;PMS_P2;Temp;Humidity;BMP_temperature;BMP_pressure;BME280_temperature;BME280_humidity;BME280_pressure;Samples;Min_cycle;Max_cycle;Signal;HPM_P1;HPM_P2
2021/07/11 00:00:48;;;;;;;31.63;25.98;;;15.40;99.90;;;;;;4947991;28;20046;-77
2021/07/11 00:03:15;;;;;;;29.98;26.13;;;15.50;99.90;;;;;;4954162;28;20075;-77
2021/07/11 00:05:42;;;;;;;31.73;27.63;;;15.50;99.90;;;;;;4946081;28;20055;-77
2021/07/11 00:08:09;;;;;;;30.77;25.83;;;15.60;99.90;;;;;;4963609;28;20093;-77
2021/07/11 00:10:36;;;;;;;33.63;26.17;;;15.70;99.90;;;;;;4964063;28;20124;-77
2021/07/11 00:13:03;;;;;;;32.50;25.90;;;15.60;99.90;;;;;;4961644;28;20447;-77
2021/07/11 00:15:30;;;;;;;32.85;26.63;;;15.60;99.90;;;;;;4954586;28;20051;-78
2021/07/11 00:18:00;;;;;;;32.92;27.77;;;15.70;99.90;;;;;;4948276;28;20055;-77
2021/07/11 00:20:27;;;;;;;32.88;27.30;;;15.70;99.90;;;;;;4945080;28;20520;-77
2021/07/11 00:22:55;;;;;;;28.98;24.50;;;15.70;99.90;;;;;;4944660;28;20095;-77
2021/07/11 00:25:22;;;;;;;30.55;26.15;;;15.70;99.90;;;;;;4964422;28;20089;-77
2021/07/11 00:27:49;;;;;;;26.63;23.67;;;15.70;99.90;;;;;;4946631;28;20117;-77
2021/07/11 00:30:17;;;;;;;29.40;24.60;;;15.80;99.90;;;;;;4965324;28;20063;-76
2021/07/11 00:32:44;;;;;;;29.05;25.88;;;15.80;99.90;;;;;;4946739;28;20077;-77
2021/07/11 00:35:12;;;;;;;37.13;28.50;;;15.70;99.90;;;;;;4945452;28;20512;-77
2021/07/11 00:37:39;;;;;;;35.00;26.13;;;15.80;99.90;;;;;;4915093;29;20149;-77
2021/07/11 00:40:08;;;;;;;31.42;25.73;;;15.90;99.90;;;;;;4946691;28;20147;-77
2021/07/11 00:42:38;;;;;;;30.10;25.20;;;15.90;99.90;;;;;;4936317;28;20065;-77
2021/07/11 00:45:08;;;;;;;32.65;25.52;;;15.80;99.90;;;;;;4958432;28;20475;-77
2021/07/11 00:47:39;;;;;;;30.92;25.60;;;15.90;99.90;;;;;;4930811;29;20158;-77
2021/07/11 00:50:11;;;;;;;31.15;24.20;;;15.90;99.90;;;;;;4945128;28;20059;-77
2021/07/11 00:52:39;;;;;;;30.45;24.15;;;15.80;99.90;;;;;;4947020;28;20059;-76
2021/07/11 00:55:10;;;;;;;30.15;23.90;;;15.80;99.90;;;;;;4965287;28;20062;-77
2021/07/11 00:57:36;;;;;;;35.13;26.38;;;15.80;99.90;;;;;;4930973;28;20089;-77
2021/07/11 01:00:10;;;;;;;29.20;25.55;;;15.80;99.90;;;;;;4944862;28;20307;-77
2021/07/11 01:03:19;;;;;;;32.17;26.83;;;15.80;99.90;;;;;;4925397;29;20373;-77
2021/07/11 01:05:49;;;;;;;34.63;26.67;;;15.90;99.90;;;;;;4929665;29;20110;-77
2021/07/11 01:08:30;;;;;;;31.73;25.73;;;15.90;99.90;;;;;;4929315;28;20073;-77
2021/07/11 01:11:10;;;;;;;30.15;25.75;;;15.90;99.90;;;;;;4945249;28;20107;-77
2021/07/11 01:13:41;;;;;;;28.90;25.80;;;15.90;99.90;;;;;;4953448;28;20085;-78
2021/07/11 01:16:19;;;;;;;32.60;26.50;;;15.90;99.90;;;;;;4950060;28;20528;-77
2021/07/11 01:19:08;;;;;;;29.50;25.75;;;16.00;99.90;;;;;;4929694;28;20043;-77
2021/07/11 01:21:45;;;;;;;30.38;26.23;;;16.10;99.90;;;;;;4929123;29;20055;-77
2021/07/11 01:24:32;;;;;;;30.73;27.42;;;16.00;99.90;;;;;;4938830;28;20109;-77
2021/07/11 01:27:02;;;;;;;31.77;26.95;;;16.00;99.90;;;;;;4944612;28;20130;-76
2021/07/11 01:29:30;;;;;;;31.45;27.30;;;16.10;99.90;;;;;;4948920;28;20133;-76
2021/07/11 01:31:59;;;;;;;32.00;27.15;;;16.00;99.90;;;;;;4925491;28;20528;-78
2021/07/11 01:34:27;;;;;;;32.03;25.88;;;15.80;99.90;;;;;;4964480;28;20047;-78
2021/07/11 01:36:56;;;;;;;30.05;26.05;;;15.80;99.90;;;;;;4947409;28;20283;-77
2021/07/11 01:39:24;;;;;;;30.73;25.30;;;15.90;99.90;;;;;;4947901;28;20051;-76
2021/07/11 01:41:52;;;;;;;30.65;26.85;;;15.80;99.90;;;;;;4963164;28;20538;-77
2021/07/11 01:44:22;;;;;;;33.95;25.65;;;15.80;99.90;;;;;;4946709;28;20039;-77
2021/07/11 01:46:50;;;;;;;31.48;26.02;;;15.80;99.90;;;;;;4930121;28;20118;-77
2021/07/11 01:49:18;;;;;;;29.48;24.92;;;16.00;99.90;;;;;;4945054;29;20066;-78
2021/07/11 01:51:51;;;;;;;30.27;25.55;;;16.00;99.90;;;;;;4927661;29;20113;-78
2021/07/11 01:54:21;;;;;;;28.05;24.30;;;16.10;99.90;;;;;;4929479;28;20691;-78
2021/07/11 01:56:48;;;;;;;25.42;22.77;;;16.10;99.90;;;;;;4955093;28;20207;-77
2021/07/11 01:59:20;;;;;;;27.60;24.27;;;16.10;99.90;;;;;;4948320;28;20199;-77
2021/07/11 02:02:03;;;;;;;28.35;25.23;;;16.10;99.90;;;;;;4959506;28;20063;-76
2021/07/11 02:04:30;;;;;;;31.98;25.80;;;16.10;99.90;;;;;;4914121;28;20476;-77
2021/07/11 02:06:58;;;;;;;28.77;24.88;;;16.00;99.90;;;;;;4944912;28;20047;-77
2021/07/11 02:09:26;;;;;;;27.35;24.40;;;15.90;99.90;;;;;;4949230;28;20081;-77
2021/07/11 02:12:01;;;;;;;33.20;26.35;;;15.80;99.90;;;;;;4962824;28;20047;-77
2021/07/11 02:14:42;;;;;;;27.88;23.85;;;15.90;99.90;;;;;;4915041;28;20043;-77
2021/07/11 02:17:17;;;;;;;31.65;23.50;;;16.00;99.90;;;;;;4946104;28;20131;-78
2021/07/11 02:20:00;;;;;;;28.65;24.58;;;16.10;99.90;;;;;;4929415;29;20074;-77
2021/07/11 02:22:32;;;;;;;29.88;26.65;;;16.20;99.90;;;;;;4928711;29;20110;-77
2021/07/11 02:25:03;;;;;;;32.45;26.45;;;16.30;99.90;;;;;;4913515;29;20412;-77
2021/07/11 02:27:33;;;;;;;31.98;26.25;;;16.30;99.90;;;;;;4938034;28;20383;-77
2021/07/11 02:30:07;;;;;;;31.42;26.38;;;16.30;99.90;;;;;;4947701;28;20320;-77
2021/07/11 02:32:34;;;;;;;33.05;25.63;;;16.30;99.90;;;;;;4953545;28;20359;-76
2021/07/11 02:35:01;;;;;;;30.48;25.70;;;16.20;99.90;;;;;;4939106;28;20146;-77
2021/07/11 02:37:31;;;;;;;32.30;25.50;;;16.00;99.90;;;;;;4963615;28;20150;-78
2021/07/11 02:40:02;;;;;;;27.92;24.55;;;16.00;99.90;;;;;;4964581;28;20051;-77
2021/07/11 02:42:29;;;;;;;30.83;25.42;;;15.90;99.90;;;;;;4947081;28;20097;-77
2021/07/11 02:44:57;;;;;;;29.02;25.70;;;16.10;99.90;;;;;;4925730;29;20046;-77
2021/07/11 02:47:35;;;;;;;32.65;27.67;;;16.00;99.90;;;;;;4930924;29;20065;-77
2021/07/11 02:50:05;;;;;;;33.30;27.13;;;16.00;99.90;;;;;;4948440;28;20229;-77
2021/07/11 02:52:43;;;;;;;31.90;27.98;;;15.90;99.90;;;;;;4931402;29;20441;-77
2021/07/11 02:55:21;;;;;;;34.53;27.35;;;15.80;99.90;;;;;;4965625;28;20134;-78
2021/07/11 02:57:55;;;;;;;32.15;27.35;;;15.60;99.90;;;;;;4962066;28;20061;-77
2021/07/11 03:00:23;;;;;;;38.78;30.25;;;15.50;99.90;;;;;;4966191;28;20110;-75
2021/07/11 03:02:52;;;;;;;43.67;28.92;;;15.50;99.90;;;;;;4942293;29;20319;-78
2021/07/11 03:05:28;;;;;;;37.42;28.90;;;15.60;99.90;;;;;;4931588;28;20273;-76
2021/07/11 03:07:58;;;;;;;32.35;27.95;;;15.50;99.90;;;;;;4931992;29;20110;-76
2021/07/11 03:10:27;;;;;;;36.42;29.02;;;15.40;99.90;;;;;;4947132;28;20058;-77
2021/07/11 03:13:00;;;;;;;36.75;29.73;;;15.40;99.90;;;;;;4948372;28;20086;-77
2021/07/11 03:15:30;;;;;;;41.88;29.90;;;15.30;99.90;;;;;;4931160;28;20099;-77
2021/07/11 03:17:59;;;;;;;38.67;29.15;;;15.10;99.90;;;;;;4932047;28;20047;-77
2021/07/11 03:20:29;;;;;;;43.30;32.42;;;14.90;99.90;;;;;;4931184;28;20044;-77
2021/07/11 03:22:59;;;;;;;42.22;30.42;;;14.90;99.90;;;;;;4916401;29;20051;-77
2021/07/11 03:25:27;;;;;;;40.95;32.58;;;14.80;99.90;;;;;;4931817;28;20762;-77
2021/07/11 03:28:04;;;;;;;44.80;32.60;;;14.80;99.90;;;;;;4962961;28;20117;-77
2021/07/11 03:30:40;;;;;;;36.78;30.48;;;14.80;99.90;;;;;;4965342;28;20141;-77
2021/07/11 03:33:08;;;;;;;41.67;31.25;;;14.80;99.90;;;;;;4922179;29;20047;-77
2021/07/11 03:35:50;;;;;;;44.25;32.50;;;15.00;99.90;;;;;;4946321;28;20320;-77
2021/07/11 03:38:25;;;;;;;42.67;32.28;;;14.90;99.90;;;;;;4951430;28;20130;-77
2021/07/11 03:40:55;;;;;;;38.88;31.20;;;14.90;99.90;;;;;;4963861;28;20164;-77
2021/07/11 03:43:24;;;;;;;47.28;34.05;;;14.90;99.90;;;;;;4949849;28;20124;-77
2021/07/11 03:45:58;;;;;;;42.35;32.28;;;14.90;99.90;;;;;;4953317;28;20055;-77
2021/07/11 03:48:30;;;;;;;41.10;31.40;;;14.80;99.90;;;;;;4948282;28;20065;-77
2021/07/11 03:51:02;;;;;;;34.53;28.88;;;14.70;99.90;;;;;;4947962;28;20051;-75
2021/07/11 03:53:36;;;;;;;39.15;30.63;;;14.70;99.90;;;;;;4930558;28;20055;-76
2021/07/11 03:56:04;;;;;;;44.25;33.17;;;14.70;99.90;;;;;;4947727;28;20427;-75
2021/07/11 03:58:37;;;;;;;35.00;29.00;;;14.80;99.90;;;;;;4947020;28;20078;-76
2021/07/11 04:01:06;;;;;;;41.35;31.80;;;14.70;99.90;;;;;;4961990;28;20135;-76
2021/07/11 04:03:37;;;;;;;36.22;29.75;;;14.50;99.90;;;;;;4944468;28;20046;-76
2021/07/11 04:06:08;;;;;;;32.13;28.35;;;14.50;99.90;;;;;;4964830;28;20748;-75
2021/07/11 04:08:35;;;;;;;33.92;27.85;;;14.50;99.90;;;;;;4961596;28;20051;-76
2021/07/11 04:11:04;;;;;;;35.42;26.40;;;14.50;99.90;;;;;;4933199;28;20503;-76
2021/07/11 04:13:34;;;;;;;32.50;26.85;;;14.50;99.90;;;;;;4967629;28;20066;-77
2021/07/11 04:16:05;;;;;;;35.20;27.92;;;14.50;99.90;;;;;;4961121;28;20051;-76
2021/07/11 04:18:41;;;;;;;33.92;26.80;;;14.50;99.90;;;;;;4948065;28;20062;-77
2021/07/11 04:21:10;;;;;;;33.03;26.42;;;14.70;99.90;;;;;;4948417;28;20546;-77
2021/07/11 04:23:38;;;;;;;34.85;27.80;;;14.70;99.90;;;;;;4967341;28;20522;-77
2021/07/11 04:26:06;;;;;;;31.95;25.27;;;14.80;99.90;;;;;;4966572;28;20456;-76
2021/07/11 04:28:40;;;;;;;30.27;25.08;;;15.10;99.90;;;;;;4960011;28;20050;-75
2021/07/11 04:31:07;;;;;;;34.08;28.10;;;15.20;99.90;;;;;;4956364;28;20047;-76
2021/07/11 04:33:34;;;;;;;34.42;28.23;;;15.40;99.90;;;;;;4946752;28;20569;-76
2021/07/11 04:36:04;;;;;;;36.08;29.17;;;15.50;99.90;;;;;;4946441;28;20054;-76
2021/07/11 04:38:31;;;;;;;42.00;32.75;;;15.60;99.90;;;;;;4951239;28;20066;-76
2021/07/11 04:40:59;;;;;;;48.65;33.80;;;15.70;99.90;;;;;;4947831;28;20051;-75
2021/07/11 04:43:26;;;;;;;45.92;33.97;;;15.90;99.90;;;;;;4946719;28;20077;-76
2021/07/11 04:45:54;;;;;;;46.35;36.28;;;16.00;99.90;;;;;;4953703;28;20569;-77
2021/07/11 04:48:21;;;;;;;58.45;38.67;;;16.20;99.90;;;;;;4946662;28;20059;-77
2021/07/11 04:50:48;;;;;;;47.40;36.63;;;16.20;99.90;;;;;;4964309;28;20046;-77
2021/07/11 04:53:16;;;;;;;57.78;40.03;;;16.30;99.90;;;;;;4964985;28;20158;-77
2021/07/11 04:55:45;;;;;;;56.88;41.17;;;16.30;99.90;;;;;;4947754;28;20256;-77
2021/07/11 04:58:13;;;;;;;68.63;45.20;;;16.40;99.90;;;;;;4961411;28;20050;-78
2021/07/11 05:00:41;;;;;;;70.00;47.47;;;16.50;99.90;;;;;;4946414;28;20105;-77
2021/07/11 05:03:08;;;;;;;66.57;44.40;;;16.60;99.90;;;;;;4952725;28;20101;-77
2021/07/11 05:05:35;;;;;;;50.70;36.75;;;16.70;99.90;;;;;;4948269;28;20106;-76
2021/07/11 05:08:03;;;;;;;57.80;40.67;;;16.70;99.90;;;;;;4944763;28;20575;-77
2021/07/11 05:10:31;;;;;;;56.53;42.28;;;16.70;99.90;;;;;;4928475;28;20075;-77
2021/07/11 05:12:58;;;;;;;65.75;46.08;;;16.80;99.90;;;;;;4951434;28;20043;-78
2021/07/11 05:15:25;;;;;;;93.00;56.85;;;16.80;99.90;;;;;;4945338;28;20230;-77
2021/07/11 05:17:52;;;;;;;91.47;59.33;;;16.80;99.90;;;;;;4965012;28;20518;-77
2021/07/11 05:20:19;;;;;;;133.32;73.82;;;16.90;99.90;;;;;;4948335;28;20046;-77
2021/07/11 05:22:46;;;;;;;136.85;77.28;;;16.80;99.90;;;;;;4961279;28;20138;-76
2021/07/11 05:25:12;;;;;;;133.65;75.78;;;16.80;99.90;;;;;;4949146;28;20138;-78
2021/07/11 05:27:39;;;;;;;139.32;77.60;;;16.70;99.90;;;;;;4937418;28;20051;-77
2021/07/11 05:30:07;;;;;;;129.95;76.30;;;16.70;99.90;;;;;;4947619;28;20618;-78
2021/07/11 05:32:34;;;;;;;136.00;77.95;;;16.80;99.90;;;;;;4957880;28;20090;-77
2021/07/11 05:35:02;;;;;;;135.95;78.63;;;16.90;99.90;;;;;;4949493;28;20051;-76
2021/07/11 05:37:28;;;;;;;130.98;79.32;;;16.80;99.90;;;;;;4932706;29;20051;-78
2021/07/11 05:39:56;;;;;;;127.75;75.65;;;16.80;99.90;;;;;;4950208;29;20058;-77
2021/07/11 05:42:23;;;;;;;119.15;73.28;;;16.70;99.90;;;;;;4948442;28;20045;-76
2021/07/11 05:44:50;;;;;;;128.52;73.72;;;16.70;99.90;;;;;;4949130;28;20059;-77
2021/07/11 05:47:16;;;;;;;137.27;76.55;;;16.70;99.90;;;;;;4928477;29;20517;-76
2021/07/11 05:49:43;;;;;;;139.07;75.90;;;16.60;99.90;;;;;;4955739;28;20388;-76
2021/07/11 05:52:10;;;;;;;131.70;75.20;;;16.70;99.90;;;;;;4943951;28;20055;-76
2021/07/11 05:54:37;;;;;;;131.18;75.63;;;16.60;99.90;;;;;;4913370;28;20047;-77
2021/07/11 05:57:04;;;;;;;129.63;75.70;;;16.50;99.90;;;;;;4950636;28;20050;-76
2021/07/11 05:59:35;;;;;;;131.57;74.75;;;16.50;99.90;;;;;;4959499;28;20055;-76
2021/07/11 06:02:03;;;;;;;126.95;74.22;;;16.60;99.90;;;;;;4942410;28;20142;-77
2021/07/11 06:04:30;;;;;;;133.05;78.50;;;16.70;99.90;;;;;;4928114;28;20052;-77
2021/07/11 06:06:56;;;;;;;129.68;77.65;;;16.70;99.90;;;;;;4943737;28;20047;-77
2021/07/11 06:09:23;;;;;;;125.07;72.03;;;16.80;99.90;;;;;;4953989;28;20065;-77
2021/07/11 06:11:50;;;;;;;128.00;74.72;;;16.80;99.90;;;;;;4942806;28;20056;-76
2021/07/11 06:14:17;;;;;;;125.43;73.32;;;16.80;99.90;;;;;;4954059;28;20097;-77
2021/07/11 06:16:45;;;;;;;133.65;74.53;;;16.80;99.90;;;;;;4928062;29;20503;-77
2021/07/11 06:19:13;;;;;;;123.25;70.55;;;16.90;99.90;;;;;;4931331;29;20050;-77
2021/07/11 06:21:41;;;;;;;119.88;72.32;;;16.90;99.90;;;;;;4949319;28;20467;-77
2021/07/11 06:24:08;;;;;;;112.80;67.20;;;17.00;99.90;;;;;;4947552;28;20121;-77
2021/07/11 06:26:35;;;;;;;113.13;66.40;;;17.20;99.90;;;;;;4944032;28;20055;-76
2021/07/11 06:29:02;;;;;;;111.20;66.43;;;17.20;99.90;;;;;;4962516;28;20487;-76
2021/07/11 06:31:29;;;;;;;115.20;66.63;;;17.30;99.90;;;;;;4945476;28;20075;-76
2021/07/11 06:33:56;;;;;;;117.30;67.07;;;17.30;99.90;;;;;;4928654;29;20047;-77
2021/07/11 06:36:25;;;;;;;106.57;65.72;;;17.30;99.90;;;;;;4926778;29;20070;-76
2021/07/11 06:38:53;;;;;;;106.35;63.10;;;17.40;99.90;;;;;;4945495;28;20119;-77
2021/07/11 06:41:20;;;;;;;105.78;63.63;;;17.30;99.90;;;;;;4927374;28;20052;-77
2021/07/11 06:43:47;;;;;;;95.43;58.67;;;17.30;99.90;;;;;;4940467;28;20065;-76
2021/07/11 06:46:14;;;;;;;92.88;60.78;;;17.30;99.90;;;;;;4931204;28;20113;-76
2021/07/11 06:48:41;;;;;;;88.93;58.83;;;17.40;99.90;;;;;;4945954;28;20110;-76
2021/07/11 06:51:08;;;;;;;92.30;57.72;;;17.50;99.90;;;;;;4948244;28;20042;-76
2021/07/11 06:53:35;;;;;;;105.03;60.80;;;17.50;99.90;;;;;;4946634;28;20231;-76
2021/07/11 06:56:04;;;;;;;100.38;61.30;;;17.60;99.90;;;;;;4963361;28;20047;-76
2021/07/11 06:58:31;;;;;;;102.70;60.67;;;17.70;99.90;;;;;;4960232;28;20051;-78
2021/07/11 07:00:58;;;;;;;107.05;63.40;;;17.70;99.90;;;;;;4945226;28;20414;-76
2021/07/11 07:03:26;;;;;;;113.07;65.20;;;17.70;99.90;;;;;;4932985;29;20055;-77
2021/07/11 07:05:53;;;;;;;109.25;65.75;;;17.60;99.90;;;;;;4959476;28;20050;-74
2021/07/11 07:08:20;;;;;;;111.38;64.85;;;17.50;99.90;;;;;;4943831;28;20059;-77
2021/07/11 07:10:47;;;;;;;109.15;63.55;;;17.50;99.90;;;;;;4943590;28;20130;-77
2021/07/11 07:13:14;;;;;;;103.43;60.53;;;17.50;99.90;;;;;;4944543;28;20577;-77
2021/07/11 07:15:41;;;;;;;95.53;60.28;;;17.60;99.90;;;;;;4951848;28;20134;-76
2021/07/11 07:18:08;;;;;;;99.75;62.45;;;17.70;99.90;;;;;;4930144;29;20047;-77
2021/07/11 07:20:35;;;;;;;106.18;62.25;;;17.60;99.90;;;;;;4943553;28;20055;-77
2021/07/11 07:23:02;;;;;;;103.72;60.45;;;17.60;99.90;;;;;;4929296;28;20438;-75
2021/07/11 07:25:29;;;;;;;113.55;64.55;;;17.60;99.90;;;;;;4942917;28;20132;-76
2021/07/11 07:27:56;;;;;;;116.00;62.88;;;17.60;99.90;;;;;;4936382;28;20281;-76
2021/07/11 07:30:23;;;;;;;103.07;60.45;;;17.60;99.90;;;;;;4964384;28;20149;-76
2021/07/11 07:32:50;;;;;;;105.05;60.72;;;17.50;99.90;;;;;;4956769;28;20575;-81
2021/07/11 07:35:19;;;;;;;121.18;62.70;;;17.60;99.90;;;;;;4948904;28;20075;-81
2021/07/11 07:37:48;;;;;;;119.10;65.80;;;17.60;99.90;;;;;;4949555;28;20063;-81
2021/07/11 07:40:17;;;;;;;123.90;67.85;;;17.60;99.90;;;;;;4950098;28;20695;-81
2021/07/11 07:42:46;;;;;;;126.63;68.75;;;17.60;99.90;;;;;;4949600;28;20492;-82
2021/07/11 07:45:13;;;;;;;124.38;67.45;;;17.60;99.90;;;;;;4953492;28;20043;-81
2021/07/11 07:47:40;;;;;;;109.50;62.30;;;17.60;99.90;;;;;;4925169;29;20094;-81
2021/07/11 07:50:10;;;;;;;112.25;62.25;;;17.60;99.90;;;;;;4949445;28;20111;-81
2021/07/11 07:52:37;;;;;;;107.07;62.13;;;17.70;99.90;;;;;;4932554;29;20057;-81
2021/07/11 07:55:05;;;;;;;114.43;65.43;;;17.70;99.90;;;;;;4947670;28;20113;-82
2021/07/11 07:57:33;;;;;;;114.20;64.63;;;17.80;99.90;;;;;;4965075;28;20102;-82
2021/07/11 08:00:00;;;;;;;117.22;65.80;;;17.70;99.90;;;;;;4967529;28;20096;-81
2021/07/11 08:02:27;;;;;;;114.40;64.82;;;17.80;99.90;;;;;;4961750;28;20039;-81
2021/07/11 08:04:54;;;;;;;107.72;62.08;;;17.80;99.90;;;;;;4932296;28;20523;-82
2021/07/11 08:07:24;;;;;;;102.45;59.17;;;18.00;99.90;;;;;;4916811;28;20051;-81
2021/07/11 08:09:52;;;;;;;109.05;62.80;;;18.10;99.90;;;;;;4933195;29;20054;-81
2021/07/11 08:12:19;;;;;;;114.68;64.18;;;18.20;99.90;;;;;;4931504;29;20146;-80
2021/07/11 08:14:46;;;;;;;117.38;69.68;;;18.10;99.90;;;;;;4931530;29;20051;-82
2021/07/11 08:17:13;;;;;;;107.97;62.47;;;18.10;99.90;;;;;;4948338;28;20149;-81
2021/07/11 08:19:40;;;;;;;99.40;58.88;;;18.10;99.90;;;;;;4947862;28;20415;-81
2021/07/11 08:22:07;;;;;;;85.40;53.80;;;18.20;99.90;;;;;;4946789;28;20669;-81
2021/07/11 08:24:34;;;;;;;98.75;56.70;;;18.30;99.90;;;;;;4932092;29;20055;-80
2021/07/11 08:27:03;;;;;;;88.78;55.85;;;18.30;99.90;;;;;;4935330;28;20404;-81
2021/07/11 08:29:30;;;;;;;92.72;57.65;;;18.40;99.90;;;;;;4934280;28;20108;-82
2021/07/11 08:32:00;;;;;;;92.43;54.80;;;18.30;99.90;;;;;;4961353;28;20116;-82
2021/07/11 08:34:27;;;;;;;76.75;50.58;;;18.60;99.90;;;;;;4932187;29;20115;-81
2021/07/11 08:36:59;;;;;;;91.68;55.13;;;18.80;99.90;;;;;;4935631;28;20053;-82
2021/07/11 08:39:28;;;;;;;86.75;55.30;;;18.80;99.90;;;;;;4950835;28;20058;-83
2021/07/11 08:41:57;;;;;;;94.10;58.67;;;19.00;99.90;;;;;;4949716;28;20053;-82
2021/07/11 08:44:25;;;;;;;90.03;56.75;;;19.20;99.90;;;;;;4966609;28;20050;-82
2021/07/11 08:46:51;;;;;;;93.80;56.85;;;19.20;99.90;;;;;;4931948;28;20119;-82
2021/07/11 08:49:21;;;;;;;87.93;55.47;;;19.20;99.90;;;;;;4932865;29;20054;-83
2021/07/11 08:51:49;;;;;;;92.25;56.67;;;19.10;99.90;;;;;;4931059;29;20094;-82
2021/07/11 08:54:17;;;;;;;77.78;50.60;;;19.20;99.90;;;;;;4916740;29;20157;-83
2021/07/11 08:56:44;;;;;;;71.90;47.53;;;19.40;99.90;;;;;;4932717;28;20126;-81
2021/07/11 08:59:11;;;;;;;64.47;45.47;;;19.60;99.90;;;;;;4966346;28;20055;-81
2021/07/11 09:01:38;;;;;;;69.35;47.42;;;19.80;99.90;;;;;;4949537;28;20241;-82
2021/07/11 09:04:07;;;;;;;74.53;51.05;;;20.20;99.90;;;;;;4948381;28;20071;-82
2021/07/11 09:06:55;;;;;;;69.10;49.08;;;20.30;99.90;;;;;;4946502;28;20090;-80
2021/07/11 09:09:30;;;;;;;72.10;48.90;;;20.40;99.90;;;;;;4911424;29;20131;-82
2021/07/11 09:12:03;;;;;;;;;;;20.60;99.90;;;;;;4914521;28;20043;-82
2021/07/11 09:14:36;;;;;;;73.28;49.35;;;20.60;99.90;;;;;;4936289;28;19926;-82
2021/07/11 09:17:05;;;;;;;78.10;51.83;;;20.50;99.90;;;;;;4949200;28;20428;-82
2021/07/11 09:19:36;;;;;;;70.10;48.72;;;20.60;99.90;;;;;;4948691;28;20055;-82
2021/07/11 09:22:06;;;;;;;72.70;48.95;;;20.80;99.90;;;;;;4965119;28;20457;-81
2021/07/11 09:24:34;;;;;;;66.03;48.50;;;20.30;99.90;;;;;;4950222;28;20047;-82
2021/07/11 09:27:12;;;;;;;71.78;47.78;;;20.30;99.90;;;;;;4946472;28;20053;-82
2021/07/11 09:29:41;;;;;;;70.38;49.03;;;20.30;99.90;;;;;;4930743;28;20268;-82
2021/07/11 09:32:20;;;;;;;78.07;49.72;;;20.30;99.90;;;;;;4926220;28;20150;-81
2021/07/11 09:34:47;;;;;;;69.45;49.95;;;20.00;99.90;;;;;;4929973;29;20066;-82
2021/07/11 09:37:16;;;;;;;73.10;49.17;;;19.90;99.90;;;;;;4930224;29;20393;-82
2021/07/11 09:39:51;;;;;;;70.70;48.70;;;19.90;99.90;;;;;;4955679;28;20054;-83
2021/07/11 09:42:24;;;;;;;64.70;47.00;;;20.10;99.90;;;;;;4948878;28;20082;-82
2021/07/11 09:44:51;;;;;;;68.80;47.70;;;20.30;99.90;;;;;;4944896;28;20436;-81
2021/07/11 09:47:21;;;;;;;70.53;49.17;;;20.50;99.90;;;;;;4929620;29;20213;-82
2021/07/11 09:50:07;;;;;;;69.18;48.35;;;20.50;99.90;;;;;;4936391;28;20058;-82
2021/07/11 09:52:36;;;;;;;69.03;49.28;;;20.50;99.90;;;;;;4957257;28;20062;-82
2021/07/11 09:55:08;;;;;;;64.03;47.63;;;20.60;99.90;;;;;;4939660;28;20571;-83
2021/07/11 09:57:38;;;;;;;66.75;48.20;;;20.90;99.90;;;;;;4959451;28;20129;-83
2021/07/11 10:00:24;;;;;;;67.90;49.13;;;21.30;99.90;;;;;;4937593;28;20047;-83
2021/07/11 10:03:11;;;;;;;64.13;47.10;;;21.50;99.90;;;;;;4929654;29;20047;-81
2021/07/11 10:05:40;;;;;;;66.00;48.90;;;21.70;99.90;;;;;;4937017;28;20419;-82
2021/07/11 10:08:07;;;;;;;60.15;45.22;;;21.80;99.90;;;;;;4964689;28;20081;-83
2021/07/11 10:10:36;;;;;;;63.05;47.58;;;22.00;99.90;;;;;;4953411;28;20047;-82
2021/07/11 10:13:04;;;;;;;61.30;47.22;;;22.10;99.90;;;;;;4948980;28;20573;-82
2021/07/11 10:15:33;;;;;;;58.22;46.80;;;22.40;99.90;;;;;;4938500;28;20082;-81
2021/07/11 10:18:06;;;;;;;63.17;47.45;;;22.50;99.90;;;;;;4929693;29;20051;-80
2021/07/11 10:20:35;;;;;;;55.40;46.30;;;22.70;99.90;;;;;;4950757;28;20371;-83
2021/07/11 10:23:04;;;;;;;60.70;45.00;;;22.70;99.90;;;;;;4948996;28;20129;-83
2021/07/11 10:25:33;;;;;;;59.80;46.75;;;22.80;99.90;;;;;;4948376;28;20150;-82
2021/07/11 10:28:08;;;;;;;51.67;43.53;;;22.90;99.90;;;;;;4948119;28;20046;-83
2021/07/11 10:30:40;;;;;;;54.13;43.20;;;23.00;99.90;;;;;;4940860;28;20497;-82
2021/07/11 10:33:09;;;;;;;53.63;43.45;;;23.30;99.90;;;;;;4930855;29;20075;-83
2021/07/11 10:35:49;;;;;;;53.75;44.90;;;23.50;99.90;;;;;;4946847;28;20103;-82
2021/07/11 10:38:39;;;;;;;51.50;43.10;;;23.70;99.90;;;;;;4930135;29;20065;-82
2021/07/11 10:41:31;;;;;;;50.95;42.78;;;23.80;99.90;;;;;;4933984;28;20182;-82
2021/07/11 10:44:07;;;;;;;56.63;44.78;;;23.90;99.90;;;;;;4950780;28;20559;-82
2021/07/11 10:46:44;;;;;;;57.55;45.25;;;24.00;99.90;;;;;;4930506;29;20591;-82
2021/07/11 10:49:13;;;;;;;50.67;42.35;;;23.70;99.90;;;;;;4920827;28;20050;-82
2021/07/11 10:51:45;;;;;;;53.58;43.67;;;23.50;99.90;;;;;;4962340;28;20451;-82
2021/07/11 10:54:22;;;;;;;52.00;42.25;;;23.60;99.90;;;;;;4949603;28;20565;-82
2021/07/11 10:56:49;;;;;;;50.10;40.97;;;23.60;99.90;;;;;;4946105;28;20073;-81
2021/07/11 10:59:25;;;;;;;45.35;39.08;;;23.80;99.90;;;;;;4964198;28;20278;-83
2021/07/11 11:01:53;;;;;;;47.20;40.90;;;24.00;99.90;;;;;;4947387;28;20085;-83
2021/07/11 11:04:20;;;;;;;45.10;39.60;;;24.20;99.90;;;;;;4946492;28;20055;-82
2021/07/11 11:06:48;;;;;;;48.92;39.25;;;24.30;99.90;;;;;;4933130;28;20431;-82
2021/07/11 11:09:38;;;;;;;46.45;39.83;;;24.40;99.90;;;;;;4935410;28;20106;-81
2021/07/11 11:12:20;;;;;;;43.88;37.80;;;24.40;99.90;;;;;;4936426;28;20043;-82
2021/07/11 11:14:52;;;;;;;43.65;37.20;;;24.70;99.90;;;;;;4934304;28;20058;-81
2021/07/11 11:17:34;;;;;;;44.65;39.90;;;24.90;99.90;;;;;;4952276;28;20704;-82
2021/07/11 11:20:16;;;;;;;50.92;42.05;;;24.70;99.90;;;;;;4951916;28;20053;-82
2021/07/11 11:22:54;;;;;;;51.40;43.75;;;24.50;99.90;;;;;;4966757;28;20078;-81
2021/07/11 11:25:22;;;;;;;53.17;42.28;;;24.30;99.90;;;;;;4951345;28;20046;-82
2021/07/11 11:27:54;;;;;;;50.55;43.38;;;24.00;99.90;;;;;;4948726;28;20142;-81
2021/07/11 11:30:25;;;;;;;50.92;42.78;;;23.90;99.90;;;;;;4933750;28;20050;-82
2021/07/11 11:32:58;;;;;;;45.05;39.47;;;23.50;99.90;;;;;;4939375;28;20054;-82
2021/07/11 11:35:30;;;;;;;45.42;39.22;;;23.40;99.90;;;;;;4948546;28;20051;-82
2021/07/11 11:37:59;;;;;;;41.40;36.90;;;23.50;99.90;;;;;;4948104;28;20047;-81
2021/07/11 11:40:29;;;;;;;42.33;37.72;;;23.50;99.90;;;;;;4952904;28;20074;-81
2021/07/11 11:43:02;;;;;;;46.47;39.95;;;23.40;99.90;;;;;;4948919;28;20644;-81
2021/07/11 11:45:33;;;;;;;50.10;42.17;;;23.30;99.90;;;;;;4957158;28;20110;-81
2021/07/11 11:48:06;;;;;;;46.13;40.70;;;23.00;99.90;;;;;;4931777;29;20154;-81
2021/07/11 11:50:39;;;;;;;50.53;41.72;;;22.90;99.90;;;;;;4931326;29;20569;-81
2021/07/11 11:53:10;;;;;;;47.90;40.15;;;23.10;99.90;;;;;;4966917;28;20503;-81
2021/07/11 11:55:40;;;;;;;45.38;37.50;;;23.20;99.90;;;;;;4949159;28;20069;-81
2021/07/11 11:58:08;;;;;;;49.22;40.53;;;23.50;99.90;;;;;;4964239;28;20125;-81
2021/07/11 12:00:36;;;;;;;42.10;37.00;;;23.70;99.90;;;;;;4944990;28;20531;-82
2021/07/11 12:03:06;;;;;;;45.17;38.42;;;23.70;99.90;;;;;;4920727;29;20043;-81
2021/07/11 12:05:36;;;;;;;44.05;39.35;;;23.60;99.90;;;;;;4946898;28;20501;-82
2021/07/11 12:08:17;;;;;;;43.88;37.65;;;23.90;99.90;;;;;;4931031;28;20043;-81
2021/07/11 12:10:45;;;;;;;42.72;38.03;;;24.10;99.90;;;;;;4930442;29;20133;-81
2021/07/11 12:13:23;;;;;;;44.78;40.00;;;24.00;99.90;;;;;;4945031;28;20051;-81
2021/07/11 12:16:20;;;;;;;47.30;39.83;;;24.10;99.90;;;;;;4926311;28;20059;-82
2021/07/11 12:18:49;;;;;;;43.65;38.83;;;24.10;99.90;;;;;;4930794;29;20498;-83
2021/07/11 12:21:29;;;;;;;44.22;39.08;;;24.20;99.90;;;;;;4930631;29;20106;-82
2021/07/11 12:24:11;;;;;;;49.40;42.88;;;24.20;99.90;;;;;;4964576;28;20054;-81
2021/07/11 12:26:41;;;;;;;44.00;37.38;;;23.80;99.90;;;;;;4963586;28;20521;-81
2021/07/11 12:29:09;;;;;;;48.35;40.53;;;23.70;99.90;;;;;;4946484;28;20042;-81
2021/07/11 12:31:37;;;;;;;42.63;38.00;;;23.40;99.90;;;;;;4930082;29;20089;-81
2021/07/11 12:34:11;;;;;;;43.42;38.50;;;23.30;99.90;;;;;;4959551;28;20070;-81
2021/07/11 12:36:49;;;;;;;48.77;39.73;;;23.20;99.90;;;;;;4950154;28;20288;-81
2021/07/11 12:39:32;;;;;;;44.17;38.47;;;23.10;99.90;;;;;;4950179;28;20294;-81
2021/07/11 12:41:59;;;;;;;47.90;39.50;;;23.00;99.90;;;;;;4932546;28;20078;-82